Time;durP1;ratioP1;P1;durP2;ratioP2;P2;SDS_P1;SDS_P2;PMS_P1;PMS_P2;Temp;Humidity;BMP_temperature;BMP_pressure;BME280_temperature;BME280_humidity;BME280_pressure;Samples;Min_cycle;Max_cycle;Signal;HPM_P1;HPM_P2
2021/12/07 00:00:13;;;;;;;1.77;1.05;;;19.80;57.20;;;;;;5085860;28;20661;-41
2021/12/07 00:02:45;;;;;;;2.45;1.20;;;19.80;57.90;;;;;;5081363;28;20285;-48
2021/12/07 00:05:16;;;;;;;2.20;0.90;;;19.70;58.00;;;;;;5082565;28;20645;-37
2021/12/07 00:07:46;;;;;;;3.08;1.00;;;19.70;58.10;;;;;;5085447;28;20226;-39
2021/12/07 00:10:18;;;;;;;3.33;1.55;;;19.70;58.30;;;;;;5074180;28;20274;-37
2021/12/07 00:12:49;;;;;;;1.77;1.05;;;19.70;58.60;;;;;;5083064;28;20313;-37
2021/12/07 00:15:22;;;;;;;2.90;0.82;;;19.70;58.70;;;;;;5086027;28;20218;-37
2021/12/07 00:17:55;;;;;;;3.00;1.10;;;19.60;58.80;;;;;;5083789;28;20222;-37
2021/12/07 00:20:26;;;;;;;1.58;0.90;;;19.60;58.60;;;;;;5082367;28;20289;-37
2021/12/07 00:22:59;;;;;;;1.92;0.80;;;19.60;58.40;;;;;;5086181;28;20285;-37
2021/12/07 00:25:30;;;;;;;1.35;0.63;;;19.60;58.20;;;;;;5080166;28;20285;-39
2021/12/07 00:28:01;;;;;;;1.35;0.60;;;19.50;57.90;;;;;;5084393;28;20324;-45
2021/12/07 00:30:33;;;;;;;0.63;0.60;;;19.50;58.10;;;;;;5083855;28;20236;-45
2021/12/07 00:33:14;;;;;;;3.33;0.98;;;19.50;58.20;;;;;;5078318;28;20286;-37
2021/12/07 00:35:45;;;;;;;2.80;0.90;;;19.50;58.60;;;;;;5084364;28;20198;-45
2021/12/07 00:38:17;;;;;;;1.17;0.90;;;19.50;58.70;;;;;;5080105;28;20894;-46
2021/12/07 00:40:49;;;;;;;2.22;1.02;;;19.50;58.90;;;;;;5082383;28;20281;-41
2021/12/07 00:43:19;;;;;;;2.35;0.70;;;19.50;59.00;;;;;;5083413;28;20285;-37
2021/12/07 00:45:51;;;;;;;3.40;0.85;;;19.50;59.50;;;;;;5080762;28;20277;-43
2021/12/07 00:48:23;;;;;;;1.80;0.70;;;19.50;58.90;;;;;;5082221;28;20306;-38
2021/12/07 00:50:54;;;;;;;0.85;0.63;;;19.50;59.10;;;;;;5085428;28;20292;-49
2021/12/07 00:53:26;;;;;;;0.93;0.65;;;19.50;58.90;;;;;;5084272;28;20252;-43
2021/12/07 00:56:00;;;;;;;0.70;0.70;;;19.50;58.80;;;;;;5079804;28;20293;-44
2021/12/07 00:58:32;;;;;;;0.80;0.80;;;19.50;58.70;;;;;;5085311;28;20225;-37
2021/12/07 01:01:06;;;;;;;1.08;0.77;;;19.50;58.70;;;;;;5082501;28;20228;-37
2021/12/07 01:03:39;;;;;;;2.63;0.60;;;19.50;58.80;;;;;;5081334;28;20202;-37
2021/12/07 01:06:19;;;;;;;0.80;0.70;;;19.50;58.70;;;;;;5082302;28;20681;-37
2021/12/07 01:09:01;;;;;;;1.67;0.75;;;19.50;58.80;;;;;;5080051;28;20643;-36
2021/12/07 01:25:35;;;;;;;1.67;0.73;;;19.50;58.70;;;;;;5080741;28;20317;-49
2021/12/07 01:28:13;;;;;;;1.90;0.55;;;19.50;58.70;;;;;;5082119;28;20213;-45
2021/12/07 01:30:51;;;;;;;1.00;0.52;;;19.50;58.60;;;;;;5081478;28;20205;-49
2021/12/07 01:33:40;;;;;;;0.65;0.50;;;19.50;58.60;;;;;;5080306;28;20201;-38
2021/12/07 01:36:34;;;;;;;1.50;0.73;;;19.50;58.50;;;;;;5081726;28;20198;-47
2021/12/07 01:45:01;;;;;;;0.80;0.60;;;19.50;58.50;;;;;;5079952;28;20244;-43
2021/12/07 01:47:43;;;;;;;1.80;0.70;;;19.50;58.60;;;;;;5080461;28;20666;-43
2021/12/07 01:50:28;;;;;;;1.08;0.80;;;19.50;58.50;;;;;;5080923;28;20199;-44
2021/12/07 02:01:12;;;;;;;1.98;0.68;;;19.70;58.50;;;;;;5081745;28;20209;-46
2021/12/07 02:03:43;;;;;;;1.88;0.63;;;19.80;58.50;;;;;;5077846;28;20664;-50
2021/12/07 02:06:14;;;;;;;1.00;0.70;;;19.80;58.40;;;;;;5082685;28;20282;-50
2021/12/07 02:08:46;;;;;;;1.85;0.70;;;19.80;58.20;;;;;;5083279;28;20306;-44
2021/12/07 02:11:16;;;;;;;0.98;0.65;;;19.90;58.20;;;;;;5085399;28;20610;-43
2021/12/07 02:14:16;;;;;;;1.80;0.50;;;19.90;58.30;;;;;;5086196;28;20236;-44
2021/12/07 02:16:49;;;;;;;0.70;0.57;;;20.00;58.20;;;;;;5087364;28;20680;-44
2021/12/07 02:19:20;;;;;;;1.55;0.73;;;20.00;58.20;;;;;;5085271;28;20288;-45
2021/12/07 02:21:53;;;;;;;1.38;0.65;;;20.10;58.20;;;;;;5083126;28;20217;-51
2021/12/07 02:24:23;;;;;;;1.00;0.70;;;20.10;58.10;;;;;;5085781;28;20197;-44
2021/12/07 02:26:54;;;;;;;0.70;0.60;;;20.20;58.00;;;;;;5080033;28;20255;-44
2021/12/07 02:29:25;;;;;;;0.60;0.60;;;20.20;57.90;;;;;;5082411;28;20352;-43
2021/12/07 02:31:58;;;;;;;4.32;0.90;;;20.30;57.80;;;;;;5086618;28;20651;-45
2021/12/07 02:34:29;;;;;;;1.70;0.75;;;20.40;57.60;;;;;;5079059;28;20740;-49
2021/12/07 02:37:01;;;;;;;1.10;0.80;;;20.40;57.40;;;;;;5084930;28;20535;-51
2021/12/07 02:39:35;;;;;;;0.80;0.70;;;20.40;57.40;;;;;;5085184;28;20214;-48
2021/12/07 02:42:06;;;;;;;1.73;0.80;;;20.40;57.30;;;;;;5081556;28;20632;-43
2021/12/07 02:44:37;;;;;;;2.97;1.30;;;20.40;57.10;;;;;;5084896;28;20225;-42
2021/12/07 02:47:08;;;;;;;8.15;1.92;;;20.40;57.20;;;;;;5084966;28;20315;-51
2021/12/07 02:49:38;;;;;;;6.22;1.92;;;20.40;57.30;;;;;;5082128;28;20278;-43
2021/12/07 02:52:11;;;;;;;2.67;1.70;;;20.50;57.40;;;;;;5087480;28;20249;-43
2021/12/07 02:54:44;;;;;;;5.40;1.50;;;20.50;57.90;;;;;;5082893;28;20277;-42
2021/12/07 02:57:16;;;;;;;2.15;1.30;;;20.60;57.40;;;;;;5082834;28;20200;-47
2021/12/07 02:59:56;;;;;;;5.47;1.73;;;20.60;57.30;;;;;;5086313;28;20313;-47
2021/12/07 03:02:27;;;;;;;3.95;1.55;;;20.60;57.30;;;;;;5083186;28;20741;-50
2021/12/07 03:05:02;;;;;;;2.38;1.50;;;20.70;57.60;;;;;;5082111;28;20210;-48
2021/12/07 03:07:48;;;;;;;3.58;2.00;;;20.70;57.30;;;;;;5087158;28;20198;-44
2021/12/07 03:27:15;;;;;;;3.28;1.60;;;20.90;57.00;;;;;;5087420;28;20315;-54
2021/12/07 03:29:45;;;;;;;3.10;1.88;;;21.00;57.00;;;;;;5086004;28;20317;-51
2021/12/07 03:32:16;;;;;;;3.80;1.73;;;21.00;56.90;;;;;;5079901;28;20246;-43
2021/12/07 03:34:47;;;;;;;2.00;1.52;;;21.00;56.80;;;;;;5086754;28;20247;-48
2021/12/07 03:37:17;;;;;;;3.78;1.98;;;21.00;56.70;;;;;;5083467;28;20635;-50
2021/12/07 03:39:50;;;;;;;4.63;2.25;;;21.00;56.70;;;;;;5083562;28;20734;-52
2021/12/07 03:42:20;;;;;;;3.28;1.60;;;21.10;56.80;;;;;;5087989;28;20281;-43
2021/12/07 03:44:51;;;;;;;2.78;1.67;;;21.10;56.90;;;;;;5083288;28;20623;-45
2021/12/07 03:47:21;;;;;;;2.58;1.70;;;21.10;56.90;;;;;;5085494;28;20285;-43
2021/12/07 03:49:51;;;;;;;3.05;1.70;;;21.10;56.90;;;;;;5083601;28;20285;-43
2021/12/07 03:52:22;;;;;;;2.10;1.70;;;21.10;56.80;;;;;;5083757;28;20709;-44
2021/12/07 03:54:55;;;;;;;2.17;1.80;;;21.20;56.80;;;;;;5085454;28;20186;-43
2021/12/07 03:57:25;;;;;;;2.17;1.52;;;21.20;56.70;;;;;;5086084;28;20196;-43
2021/12/07 03:59:56;;;;;;;3.47;1.67;;;21.20;56.70;;;;;;5081732;28;20741;-44
2021/12/07 04:02:27;;;;;;;3.17;2.00;;;21.20;56.60;;;;;;5086008;28;20233;-42
2021/12/07 04:05:02;;;;;;;2.00;1.60;;;21.20;56.50;;;;;;5086117;28;20221;-47
2021/12/07 04:07:32;;;;;;;2.80;1.67;;;21.20;56.50;;;;;;5081538;28;20564;-46
2021/12/07 04:10:05;;;;;;;3.45;1.90;;;21.30;56.50;;;;;;5085286;28;20303;-43
2021/12/07 04:12:36;;;;;;;2.65;1.58;;;21.30;56.50;;;;;;5084828;28;20647;-44
2021/12/07 04:15:08;;;;;;;3.05;1.83;;;21.30;56.40;;;;;;5082248;28;20280;-43
2021/12/07 04:17:39;;;;;;;2.53;1.52;;;21.30;56.40;;;;;;5085232;28;20661;-52
2021/12/07 04:20:11;;;;;;;3.60;1.63;;;21.30;56.30;;;;;;5083037;28;20297;-52
2021/12/07 04:22:42;;;;;;;1.95;1.65;;;21.30;56.30;;;;;;5081628;28;20630;-43
2021/12/07 04:25:16;;;;;;;3.80;1.75;;;21.30;56.20;;;;;;5085266;28;20286;-43
2021/12/07 04:27:47;;;;;;;1.88;1.40;;;21.40;56.30;;;;;;5083070;28;20944;-47
2021/12/07 04:30:21;;;;;;;2.88;1.50;;;21.40;56.30;;;;;;5080874;28;20237;-47
2021/12/07 04:32:52;;;;;;;1.77;1.55;;;21.40;56.30;;;;;;5081448;28;20235;-46
2021/12/07 04:35:23;;;;;;;2.15;1.95;;;21.40;56.20;;;;;;5075474;28;20279;-45
2021/12/07 04:37:54;;;;;;;2.70;1.48;;;21.40;56.20;;;;;;5083747;28;20308;-43
2021/12/07 04:40:29;;;;;;;1.92;1.45;;;21.40;56.10;;;;;;5085664;28;20253;-49
2021/12/07 04:43:01;;;;;;;2.03;1.63;;;21.50;56.10;;;;;;5080740;28;20282;-46
2021/12/07 04:45:49;;;;;;;1.80;1.70;;;21.50;56.10;;;;;;5083001;28;20194;-50
2021/12/07 04:48:56;;;;;;;1.92;1.35;;;21.50;56.00;;;;;;5084250;28;20222;-43
2021/12/07 04:59:48;;;;;;;1.70;1.50;;;21.60;55.90;;;;;;5080651;28;20232;-45
2021/12/07 05:02:19;;;;;;;2.00;1.70;;;21.60;55.80;;;;;;5081757;28;20687;-42
2021/12/07 05:04:49;;;;;;;1.65;1.50;;;21.60;55.80;;;;;;5082824;28;20666;-42
2021/12/07 05:07:26;;;;;;;1.60;1.50;;;21.60;55.80;;;;;;5080408;28;20595;-44
2021/12/07 05:13:20;;;;;;;2.47;1.25;;;21.70;55.70;;;;;;5059562;28;20236;-46
2021/12/07 05:16:11;;;;;;;1.30;1.20;;;21.70;55.70;;;;;;5079999;28;20208;-40
2021/12/07 05:18:57;;;;;;;1.77;1.50;;;21.70;55.70;;;;;;5082493;28;20220;-41
2021/12/07 05:24:18;;;;;;;2.65;1.50;;;21.80;55.70;;;;;;5083253;28;20225;-49
2021/12/07 05:37:56;;;;;;;1.63;1.52;;;21.80;55.60;;;;;;5084113;28;20297;-40
2021/12/07 05:40:28;;;;;;;2.38;1.58;;;21.80;55.50;;;;;;5083339;28;20199;-41
2021/12/07 05:43:00;;;;;;;1.70;1.55;;;21.80;55.50;;;;;;5082489;28;20288;-42
2021/12/07 05:45:34;;;;;;;3.25;1.83;;;21.90;55.50;;;;;;5076350;28;20202;-47
2021/12/07 05:48:05;;;;;;;1.73;1.58;;;21.90;55.50;;;;;;5083724;28;20309;-46
2021/12/07 05:50:38;;;;;;;4.15;1.80;;;21.90;55.40;;;;;;5085614;28;20237;-54
2021/12/07 05:53:09;;;;;;;4.20;2.22;;;21.90;55.40;;;;;;5076557;28;20313;-50
2021/12/07 05:55:41;;;;;;;3.30;1.73;;;21.90;55.30;;;;;;5078265;28;20632;-47
2021/12/07 05:58:12;;;;;;;4.43;1.65;;;21.90;55.40;;;;;;5078873;28;20976;-46
2021/12/07 06:00:46;;;;;;;3.72;1.70;;;21.90;55.30;;;;;;5081408;28;20248;-53
2021/12/07 06:03:17;;;;;;;3.03;1.83;;;22.00;55.30;;;;;;5082864;28;20201;-49
2021/12/07 06:05:47;;;;;;;2.63;1.85;;;22.00;55.30;;;;;;5083884;28;20269;-45
2021/12/07 06:08:18;;;;;;;2.50;1.45;;;22.00;55.30;;;;;;5079557;28;20225;-47
2021/12/07 06:10:49;;;;;;;3.05;1.40;;;22.00;55.20;;;;;;5084734;28;20234;-50
2021/12/07 06:13:19;;;;;;;1.73;1.63;;;22.00;55.30;;;;;;5081118;28;20309;-43
2021/12/07 06:15:52;;;;;;;4.40;2.08;;;22.00;55.20;;;;;;5081194;28;20252;-48
2021/12/07 06:18:23;;;;;;;3.40;1.85;;;22.00;55.20;;;;;;5084231;28;20221;-49
2021/12/07 06:20:53;;;;;;;3.08;1.70;;;22.00;55.20;;;;;;5078313;28;20226;-48
2021/12/07 06:23:24;;;;;;;2.58;1.42;;;22.00;55.20;;;;;;5080111;28;20663;-48
2021/12/07 06:25:56;;;;;;;3.20;1.73;;;22.00;55.10;;;;;;5085272;28;20285;-48
2021/12/07 06:28:26;;;;;;;2.20;1.45;;;22.00;55.10;;;;;;5081152;28;20296;-49
2021/12/07 06:30:59;;;;;;;2.17;1.70;;;22.10;55.10;;;;;;5084309;28;20281;-48
2021/12/07 06:33:29;;;;;;;2.67;1.58;;;22.10;55.00;;;;;;5077123;28;20317;-49
2021/12/07 06:36:02;;;;;;;1.95;1.58;;;22.10;55.00;;;;;;5081267;28;20277;-49
2021/12/07 06:38:35;;;;;;;1.50;1.40;;;22.10;55.00;;;;;;5081075;28;20222;-54
2021/12/07 06:41:06;;;;;;;3.13;1.67;;;22.10;55.00;;;;;;5081808;28;20274;-53
2021/12/07 06:43:37;;;;;;;5.10;1.77;;;22.10;54.90;;;;;;5079868;28;20285;-50
2021/12/07 06:46:10;;;;;;;3.22;1.75;;;22.10;54.90;;;;;;5083323;28;20648;-50
2021/12/07 06:48:40;;;;;;;4.20;1.40;;;22.10;54.90;;;;;;5083659;28;20221;-46
2021/12/07 06:51:11;;;;;;;5.18;1.80;;;22.10;54.90;;;;;;5081963;28;20198;-51
2021/12/07 06:53:41;;;;;;;2.70;1.70;;;22.10;54.80;;;;;;5084950;28;20794;-47
2021/12/07 06:56:12;;;;;;;5.15;1.90;;;22.10;54.80;;;;;;5081803;28;20274;-45
2021/12/07 06:58:43;;;;;;;3.45;1.67;;;22.10;54.80;;;;;;5083160;28;20767;-53
2021/12/07 07:01:15;;;;;;;4.35;1.90;;;22.10;54.70;;;;;;5088872;28;20301;-43
2021/12/07 07:03:46;;;;;;;2.03;1.40;;;22.10;54.80;;;;;;5083036;28;20222;-49
2021/12/07 07:06:17;;;;;;;2.03;1.60;;;22.10;54.80;;;;;;5085754;28;20440;-47
2021/12/07 07:08:50;;;;;;;3.38;1.90;;;22.10;54.90;;;;;;5082202;28;20293;-48
2021/12/07 07:11:20;;;;;;;1.92;1.42;;;22.10;54.90;;;;;;5085473;28;20190;-45
2021/12/07 07:13:51;;;;;;;1.70;1.60;;;22.10;54.90;;;;;;5079943;28;21657;-45
2021/12/07 07:16:24;;;;;;;2.13;1.67;;;22.10;54.80;;;;;;5087208;28;20221;-46
2021/12/07 07:18:54;;;;;;;4.45;2.00;;;22.10;54.80;;;;;;5082793;28;20729;-49
2021/12/07 07:21:25;;;;;;;2.88;1.70;;;22.10;55.40;;;;;;5085056;28;20225;-49
2021/12/07 07:23:56;;;;;;;3.08;1.40;;;22.10;54.70;;;;;;5086838;28;20280;-53
2021/12/07 07:26:26;;;;;;;3.38;1.50;;;22.10;54.80;;;;;;5082723;28;20290;-50
2021/12/07 07:28:57;;;;;;;4.22;1.75;;;22.10;54.70;;;;;;5085189;28;20657;-47
2021/12/07 07:31:29;;;;;;;2.78;1.35;;;22.10;54.80;;;;;;5086122;28;20285;-47
2021/12/07 07:34:00;;;;;;;2.92;1.85;;;22.10;54.70;;;;;;5082985;28;20240;-56
2021/12/07 07:36:30;;;;;;;2.80;1.77;;;22.10;54.70;;;;;;5087227;28;20288;-46
2021/12/07 07:39:01;;;;;;;2.90;2.05;;;22.10;54.70;;;;;;5084396;28;20293;-53
2021/12/07 07:41:31;;;;;;;1.52;1.42;;;22.10;54.70;;;;;;5082506;28;20769;-45
2021/12/07 07:44:02;;;;;;;2.78;1.52;;;22.10;54.80;;;;;;5084494;28;20226;-49
2021/12/07 07:46:34;;;;;;;1.75;1.42;;;22.00;54.70;;;;;;5081443;28;20285;-54
2021/12/07 07:49:06;;;;;;;2.25;1.60;;;22.10;54.70;;;;;;5083099;28;20301;-45
2021/12/07 07:51:37;;;;;;;1.98;1.50;;;22.00;54.70;;;;;;5085240;28;20210;-49
2021/12/07 07:54:08;;;;;;;1.77;1.40;;;22.00;54.70;;;;;;5082122;28;20636;-52
2021/12/07 07:56:39;;;;;;;3.17;1.45;;;22.00;54.60;;;;;;5075389;28;20284;-47
2021/12/07 07:59:09;;;;;;;1.42;1.33;;;22.00;54.60;;;;;;5082477;28;20309;-53
2021/12/07 08:01:42;;;;;;;1.75;1.65;;;22.00;54.60;;;;;;5079602;28;20289;-54
2021/12/07 08:04:12;;;;;;;1.55;1.40;;;22.00;54.60;;;;;;5082912;28;20302;-44
2021/12/07 08:06:43;;;;;;;2.13;1.45;;;22.00;54.60;;;;;;5081645;28;20226;-52
2021/12/07 08:09:13;;;;;;;1.65;1.33;;;22.00;54.60;;;;;;5082233;28;20332;-44
2021/12/07 08:11:44;;;;;;;1.50;1.20;;;22.00;54.60;;;;;;5082245;28;20203;-47
2021/12/07 08:14:15;;;;;;;2.67;1.60;;;21.90;54.60;;;;;;5082846;28;20317;-44
2021/12/07 08:16:48;;;;;;;1.70;1.60;;;21.90;54.50;;;;;;5075569;28;20646;-43
2021/12/07 08:19:19;;;;;;;1.85;1.50;;;22.00;54.60;;;;;;5081680;28;20301;-46
2021/12/07 08:21:50;;;;;;;1.30;1.20;;;21.90;54.50;;;;;;5080983;28;20647;-48
2021/12/07 08:24:20;;;;;;;1.60;1.50;;;21.90;54.50;;;;;;5079480;28;20769;-48
2021/12/07 08:26:51;;;;;;;1.55;1.20;;;21.90;54.50;;;;;;5077760;28;20270;-48
2021/12/07 08:29:21;;;;;;;1.65;1.40;;;21.90;54.50;;;;;;5080902;28;20304;-44
2021/12/07 08:31:54;;;;;;;2.08;1.40;;;21.90;54.50;;;;;;5080849;28;20290;-53
2021/12/07 08:34:24;;;;;;;1.40;1.30;;;21.90;54.50;;;;;;5081523;28;20305;-52
2021/12/07 08:36:55;;;;;;;2.10;1.55;;;21.90;54.40;;;;;;5078270;28;20230;-49
2021/12/07 08:39:25;;;;;;;3.15;1.30;;;21.90;54.50;;;;;;5085063;28;20305;-49
2021/12/07 08:41:56;;;;;;;2.13;1.50;;;21.90;54.50;;;;;;5082473;28;20194;-47
2021/12/07 08:44:26;;;;;;;3.47;1.58;;;21.90;54.50;;;;;;5082563;28;20744;-53
2021/12/07 08:46:59;;;;;;;2.47;1.30;;;21.90;54.50;;;;;;5081863;28;20286;-50
2021/12/07 08:49:29;;;;;;;3.45;1.42;;;21.80;54.50;;;;;;5082466;28;20214;-49
2021/12/07 08:52:00;;;;;;;2.17;1.50;;;21.80;54.50;;;;;;5080215;28;20201;-46
2021/12/07 08:59:36;;;;;;;2.92;1.42;;;21.80;54.50;;;;;;5083254;28;20238;-43
2021/12/07 09:00:11;;;;;;;2.80;1.60;;;21.80;54.50;;;;;;5079138;28;20236;-46
2021/12/07 09:02:44;;;;;;;3.15;1.80;;;21.80;54.50;;;;;;5082508;28;20416;-44
2021/12/07 09:05:14;;;;;;;1.50;1.40;;;21.70;54.50;;;;;;5083388;28;20277;-43
2021/12/07 09:07:45;;;;;;;1.45;1.35;;;21.70;54.50;;;;;;5078300;28;20285;-52
2021/12/07 09:10:16;;;;;;;2.72;1.48;;;21.70;54.50;;;;;;5082913;28;20625;-43
2021/12/07 09:12:46;;;;;;;3.15;1.60;;;21.70;54.50;;;;;;5082337;28;20676;-44
2021/12/07 09:15:17;;;;;;;2.10;1.58;;;21.70;54.50;;;;;;5082675;28;20586;-45
2021/12/07 09:17:50;;;;;;;2.03;1.40;;;21.70;54.50;;;;;;5084342;28;20297;-45
2021/12/07 09:20:20;;;;;;;2.00;1.45;;;21.70;54.50;;;;;;5077279;28;20281;-43
2021/12/07 09:22:51;;;;;;;2.05;1.55;;;21.70;54.40;;;;;;5082550;28;20285;-46
2021/12/07 09:25:22;;;;;;;2.17;1.50;;;21.70;54.40;;;;;;5084588;28;20194;-43
2021/12/07 09:27:53;;;;;;;1.92;1.33;;;21.60;54.30;;;;;;5082529;28;20253;-44
2021/12/07 09:30:23;;;;;;;2.15;1.58;;;21.60;54.30;;;;;;5084624;28;20627;-43
2021/12/07 09:32:56;;;;;;;1.70;1.15;;;21.60;54.30;;;;;;5078844;28;20563;-43
2021/12/07 09:35:27;;;;;;;1.80;1.50;;;21.60;54.40;;;;;;5082100;28;20217;-43
2021/12/07 09:41:22;;;;;;;2.75;1.30;;;21.50;54.40;;;;;;5084898;28;20228;-50
2021/12/07 09:43:53;;;;;;;2.13;1.60;;;21.50;55.00;;;;;;5081557;28;20309;-43
2021/12/07 09:46:23;;;;;;;2.08;1.60;;;21.50;54.40;;;;;;5082129;28;20201;-43
2021/12/07 09:48:56;;;;;;;1.85;1.50;;;21.50;54.40;;;;;;5082775;28;20327;-45
2021/12/07 09:51:28;;;;;;;1.55;1.30;;;21.50;54.50;;;;;;5083703;28;20816;-51
2021/12/07 09:56:35;;;;;;;2.70;1.30;;;21.40;54.50;;;;;;5724961;22;20219;-43
2021/12/07 09:59:07;;;;;;;1.63;1.30;;;21.40;54.40;;;;;;4999072;23;20257;-44
2021/12/07 10:01:38;;;;;;;2.92;1.67;;;21.40;54.40;;;;;;4985736;28;20212;-49
2021/12/07 10:04:11;;;;;;;2.40;1.38;;;21.40;54.40;;;;;;4979881;28;20712;-44
2021/12/07 10:06:41;;;;;;;2.40;1.48;;;21.40;54.40;;;;;;4979611;28;20623;-43
2021/12/07 10:09:12;;;;;;;1.75;1.30;;;21.30;54.30;;;;;;4980613;28;20284;-45
2021/12/07 10:11:43;;;;;;;1.52;1.30;;;21.30;54.30;;;;;;4983369;28;20296;-44
2021/12/07 10:14:13;;;;;;;3.08;1.40;;;21.30;54.30;;;;;;4979784;28;20304;-51
2021/12/07 10:16:48;;;;;;;2.08;1.48;;;21.30;54.30;;;;;;4983436;28;20323;-46
2021/12/07 10:19:33;;;;;;;1.80;1.30;;;21.20;54.30;;;;;;4983053;28;20236;-49
2021/12/07 10:22:05;;;;;;;1.88;1.40;;;21.20;54.30;;;;;;4983951;28;20280;-49
2021/12/07 10:24:41;;;;;;;2.50;1.55;;;21.20;54.30;;;;;;4983127;28;20230;-43
2021/12/07 10:27:12;;;;;;;1.17;1.08;;;21.20;54.40;;;;;;4982028;28;20249;-46
2021/12/07 10:29:43;;;;;;;2.50;1.50;;;21.20;54.40;;;;;;4980541;28;20281;-42
2021/12/07 10:32:13;;;;;;;1.70;1.30;;;21.20;54.50;;;;;;4982795;28;20284;-48
2021/12/07 10:34:46;;;;;;;2.00;1.30;;;21.20;54.50;;;;;;4986474;28;20221;-51
2021/12/07 10:37:20;;;;;;;2.30;1.40;;;21.10;54.40;;;;;;4984497;28;20213;-43
2021/12/07 10:39:52;;;;;;;1.67;1.40;;;21.10;54.40;;;;;;4982076;28;20614;-44
2021/12/07 10:42:24;;;;;;;1.48;1.38;;;21.10;54.40;;;;;;4985260;28;20284;-53
2021/12/07 10:44:55;;;;;;;2.53;1.40;;;21.10;54.40;;;;;;4981515;28;20206;-51
2021/12/07 10:47:27;;;;;;;2.15;1.60;;;21.00;54.30;;;;;;4982867;28;20296;-55
2021/12/07 10:50:02;;;;;;;2.13;1.40;;;21.00;54.30;;;;;;4987235;28;20264;-53
2021/12/07 10:52:35;;;;;;;2.33;1.70;;;21.00;54.30;;;;;;4984335;28;20202;-51
2021/12/07 10:55:12;;;;;;;2.13;1.52;;;21.00;54.30;;;;;;4982154;28;20325;-43
2021/12/07 10:57:45;;;;;;;1.70;1.30;;;20.90;54.20;;;;;;4986200;28;20244;-44
2021/12/07 11:00:26;;;;;;;2.35;1.55;;;20.90;54.30;;;;;;4984456;28;20292;-50
2021/12/07 11:02:59;;;;;;;2.80;1.75;;;20.90;54.30;;;;;;5005724;28;20682;-43
2021/12/07 11:05:34;;;;;;;2.35;1.25;;;20.90;54.30;;;;;;4991656;28;20745;-43
2021/12/07 11:08:06;;;;;;;2.00;1.42;;;20.80;54.30;;;;;;4989350;28;20211;-45
2021/12/07 11:10:38;;;;;;;2.08;1.40;;;20.80;54.20;;;;;;4989046;28;20204;-43
2021/12/07 11:13:13;;;;;;;1.73;1.20;;;20.80;54.30;;;;;;4981296;28;20206;-48
2021/12/07 11:15:51;;;;;;;1.95;1.60;;;20.80;54.30;;;;;;4984529;28;20225;-46
2021/12/07 11:18:25;;;;;;;2.63;1.30;;;20.70;54.30;;;;;;4983302;28;20238;-51
2021/12/07 11:20:59;;;;;;;2.70;1.35;;;20.70;54.30;;;;;;4983714;28;20698;-46
2021/12/07 11:23:33;;;;;;;1.92;1.30;;;20.70;54.90;;;;;;4990126;28;20224;-44
2021/12/07 11:31:41;;;;;;;1.65;1.40;;;20.70;54.30;;;;;;4968093;28;20196;-44
2021/12/07 11:34:27;;;;;;;1.98;1.30;;;20.60;54.20;;;;;;4985704;28;20313;-43
2021/12/07 11:37:03;;;;;;;2.10;1.40;;;20.60;54.20;;;;;;4976294;28;20766;-44
2021/12/07 11:39:36;;;;;;;1.98;1.30;;;20.60;54.20;;;;;;4986220;28;20288;-48
2021/12/07 11:42:09;;;;;;;1.40;1.20;;;20.60;54.20;;;;;;4990467;28;20271;-45
2021/12/07 11:44:52;;;;;;;2.42;1.40;;;20.50;54.30;;;;;;4991323;28;20204;-44
2021/12/07 11:47:30;;;;;;;1.23;1.13;;;20.50;54.30;;;;;;5000407;28;20249;-54
2021/12/07 11:50:01;;;;;;;1.88;1.05;;;20.50;54.20;;;;;;4977244;28;20197;-42
2021/12/07 11:52:34;;;;;;;1.95;1.23;;;20.40;54.20;;;;;;4988326;28;20281;-49
2021/12/07 11:55:06;;;;;;;2.65;1.55;;;20.40;54.30;;;;;;4987349;28;20639;-49
2021/12/07 11:57:36;;;;;;;1.42;1.27;;;20.40;54.30;;;;;;4989417;28;20653;-54
2021/12/07 12:00:11;;;;;;;1.63;1.20;;;20.40;55.00;;;;;;4981840;28;20285;-45
2021/12/07 12:02:42;;;;;;;1.40;1.30;;;20.40;54.40;;;;;;4973545;28;20281;-45
2021/12/07 12:05:13;;;;;;;1.95;1.33;;;20.40;54.30;;;;;;4990612;28;20201;-43
2021/12/07 12:07:47;;;;;;;1.45;1.30;;;20.30;54.30;;;;;;4974686;28;20309;-43
2021/12/07 12:10:18;;;;;;;2.20;1.40;;;20.30;54.30;;;;;;4989978;28;20229;-44
2021/12/07 12:13:10;;;;;;;1.83;1.15;;;20.30;54.30;;;;;;4988766;28;20198;-48
2021/12/07 12:16:05;;;;;;;2.72;1.70;;;20.30;54.30;;;;;;4988700;28;20265;-43
2021/12/07 12:18:49;;;;;;;1.50;1.08;;;20.30;54.30;;;;;;4986397;28;20288;-47
2021/12/07 12:21:32;;;;;;;2.30;1.40;;;20.20;54.20;;;;;;4975250;28;20626;-45
2021/12/07 12:24:11;;;;;;;1.38;1.20;;;20.20;54.20;;;;;;4989018;28;20284;-46
2021/12/07 12:26:45;;;;;;;1.73;1.30;;;20.20;54.20;;;;;;4988192;28;20244;-43
2021/12/07 12:29:21;;;;;;;1.45;1.20;;;20.20;54.30;;;;;;4976449;28;20202;-44
2021/12/07 12:31:56;;;;;;;1.48;1.30;;;20.10;54.20;;;;;;4988941;28;20236;-49
2021/12/07 12:34:28;;;;;;;2.15;1.50;;;20.10;54.20;;;;;;4988341;28;20292;-45
2021/12/07 12:37:06;;;;;;;1.83;1.30;;;20.10;54.20;;;;;;4980155;28;20337;-46
2021/12/07 12:39:53;;;;;;;1.77;1.45;;;20.10;54.30;;;;;;4984466;28;20288;-44
2021/12/07 12:42:38;;;;;;;1.85;1.30;;;20.10;54.30;;;;;;4988049;28;20653;-48
2021/12/07 12:45:19;;;;;;;1.90;1.17;;;20.00;54.30;;;;;;4978928;28;20212;-45
2021/12/07 12:47:57;;;;;;;1.08;1.00;;;20.00;54.30;;;;;;4975906;28;20206;-45
2021/12/07 12:50:30;;;;;;;1.35;1.15;;;20.00;54.30;;;;;;4976069;28;20203;-45
2021/12/07 12:53:03;;;;;;;2.13;1.20;;;20.00;54.40;;;;;;4984959;28;20292;-45
2021/12/07 12:55:46;;;;;;;1.42;1.33;;;20.00;54.40;;;;;;4986393;28;20288;-49
2021/12/07 12:58:21;;;;;;;1.65;1.40;;;20.00;54.40;;;;;;4982728;28;20289;-43
2021/12/07 13:01:15;;;;;;;1.48;1.35;;;19.90;54.30;;;;;;4985032;28;20201;-48
2021/12/07 13:03:54;;;;;;;1.83;1.20;;;19.90;54.30;;;;;;4988128;28;20292;-43
2021/12/07 13:06:42;;;;;;;1.10;1.00;;;19.90;54.30;;;;;;4987902;28;20312;-42
2021/12/07 13:09:22;;;;;;;1.75;1.23;;;19.90;54.30;;;;;;4987780;28;20198;-53
2021/12/07 13:11:57;;;;;;;1.67;1.20;;;19.80;54.30;;;;;;4979840;28;20290;-44
2021/12/07 13:14:41;;;;;;;2.55;1.15;;;19.80;54.30;;;;;;4988895;28;20296;-45
2021/12/07 13:17:21;;;;;;;1.10;0.95;;;19.80;54.30;;;;;;4981521;28;20228;-46
2021/12/07 13:20:16;;;;;;;1.35;1.25;;;19.80;54.30;;;;;;4975426;28;20862;-43
2021/12/07 13:22:49;;;;;;;1.77;1.40;;;19.80;54.30;;;;;;4983400;28;20284;-43
2021/12/07 13:25:23;;;;;;;1.77;1.20;;;19.70;54.30;;;;;;4987455;28;20753;-45
2021/12/07 13:28:15;;;;;;;2.30;1.52;;;19.70;54.30;;;;;;4987332;28;20241;-47
2021/12/07 13:31:12;;;;;;;1.17;1.08;;;19.70;54.40;;;;;;4989998;28;20284;-43
2021/12/07 13:33:44;;;;;;;1.05;0.95;;;19.70;54.40;;;;;;4978262;28;20293;-44
2021/12/07 13:36:43;;;;;;;1.67;1.35;;;19.70;54.40;;;;;;4983844;28;20228;-46
2021/12/07 13:39:34;;;;;;;1.10;1.00;;;19.70;54.40;;;;;;4974555;28;20201;-46
2021/12/07 13:42:08;;;;;;;1.30;1.20;;;19.70;54.40;;;;;;4974751;28;20639;-47
2021/12/07 13:44:43;;;;;;;1.20;1.10;;;19.70;54.40;;;;;;4985873;28;20283;-43
2021/12/07 13:47:16;;;;;;;1.85;1.30;;;19.60;54.40;;;;;;4987420;28;20295;-45
2021/12/07 13:49:53;;;;;;;1.10;0.95;;;19.60;54.40;;;;;;4987681;28;20230;-45
2021/12/07 13:52:25;;;;;;;1.50;1.30;;;19.60;54.40;;;;;;4987694;28;20240;-49
2021/12/07 13:54:58;;;;;;;1.48;1.25;;;19.60;54.40;;;;;;4989585;28;20314;-44
2021/12/07 13:57:30;;;;;;;1.48;1.30;;;19.60;55.00;;;;;;4972399;28;20260;-45
2021/12/07 14:00:09;;;;;;;1.38;1.20;;;19.60;54.40;;;;;;4974539;28;20297;-46
2021/12/07 14:02:40;;;;;;;1.63;1.33;;;19.60;54.40;;;;;;4986951;28;20288;-50
2021/12/07 14:05:13;;;;;;;1.30;1.10;;;19.50;54.40;;;;;;4986823;28;20233;-44
2021/12/07 14:07:45;;;;;;;1.20;1.10;;;19.50;54.40;;;;;;4988657;28;20750;-47
2021/12/07 14:10:19;;;;;;;1.50;1.20;;;19.50;54.40;;;;;;4988506;28;20281;-43
2021/12/07 14:12:50;;;;;;;1.25;1.02;;;19.50;54.40;;;;;;4974155;28;20706;-45
2021/12/07 14:15:26;;;;;;;1.67;1.25;;;19.50;54.40;;;;;;4971539;28;20245;-44
2021/12/07 14:17:58;;;;;;;2.78;1.00;;;19.50;54.50;;;;;;4987373;28;20631;-44
2021/12/07 14:20:34;;;;;;;1.55;1.20;;;19.50;54.50;;;;;;4990031;28;20289;-47
2021/12/07 14:23:17;;;;;;;1.27;1.15;;;19.50;54.50;;;;;;4989470;28;20293;-47
2021/12/07 14:25:56;;;;;;;1.27;1.02;;;19.50;54.50;;;;;;4989789;28;20300;-43
2021/12/07 14:28:33;;;;;;;1.33;1.10;;;19.50;54.50;;;;;;4987750;28;20280;-44
2021/12/07 14:31:10;;;;;;;1.50;1.30;;;19.50;54.50;;;;;;4988787;28;20675;-47
2021/12/07 14:33:43;;;;;;;1.20;1.10;;;19.40;55.10;;;;;;4987993;28;20740;-43
2021/12/07 14:36:14;;;;;;;1.35;1.23;;;19.40;54.50;;;;;;5002727;28;20229;-44
2021/12/07 14:38:44;;;;;;;1.27;1.10;;;19.40;54.40;;;;;;4975668;28;20205;-48
2021/12/07 14:41:17;;;;;;;1.38;1.20;;;19.40;54.50;;;;;;4983041;28;20285;-45
2021/12/07 14:43:47;;;;;;;1.58;1.10;;;19.40;54.50;;;;;;4988913;28;20288;-45
2021/12/07 14:46:22;;;;;;;1.83;1.20;;;19.40;54.40;;;;;;4987908;28;20312;-43